Time;durP1;ratioP1;P1;durP2;ratioP2;P2;SDS_P1;SDS_P2;PMS_P1;PMS_P2;Temp;Humidity;BMP_temperature;BMP_pressure;BME280_temperature;BME280_humidity;BME280_pressure;Samples;Min_cycle;Max_cycle;Signal;HPM_P1;HPM_P2
2022/07/04 00:00:10;;;;;;;;;;;15.10;66.40;;;;;;5048824;28;19905;-77
2022/07/04 00:02:37;;;;;;;;;;;15.10;66.50;;;;;;5048934;28;19911;-77
2022/07/04 00:05:02;;;;;;;;;;;15.10;66.40;;;;;;5065784;28;20321;-77
2022/07/04 00:07:28;;;;;;;;;;;15.10;66.50;;;;;;5050066;28;19985;-77
2022/07/04 00:09:54;;;;;;;;;;;15.10;66.60;;;;;;5050379;28;20005;-75
2022/07/04 00:12:19;;;;;;;;;;;15.10;66.50;;;;;;5050209;28;19927;-78
2022/07/04 00:14:45;;;;;;;;;;;15.10;66.50;;;;;;5049136;28;19980;-78
2022/07/04 00:17:10;;;;;;;;;;;15.10;66.50;;;;;;5050206;28;19920;-77
2022/07/04 00:19:36;;;;;;;;;;;15.10;66.50;;;;;;5065768;28;19912;-76
2022/07/04 00:22:01;;;;;;;;;;;15.10;66.50;;;;;;5050269;28;20275;-79
2022/07/04 00:24:27;;;;;;;;;;;15.10;66.50;;;;;;5048310;28;20004;-76
2022/07/04 00:26:53;;;;;;;;;;;15.10;66.50;;;;;;5032230;28;19966;-79
2022/07/04 00:29:18;;;;;;;;;;;15.10;66.50;;;;;;5049798;28;20427;-79
2022/07/04 00:31:44;;;;;;;;;;;15.10;66.50;;;;;;5064998;28;19916;-77
2022/07/04 00:34:09;;;;;;;;;;;15.10;66.50;;;;;;5065038;28;19909;-77
2022/07/04 00:36:35;;;;;;;;;;;15.10;66.50;;;;;;5047637;28;19909;-78
2022/07/04 00:39:01;;;;;;;;;;;15.00;66.50;;;;;;5065226;28;20369;-77
2022/07/04 00:41:26;;;;;;;;;;;15.00;66.50;;;;;;5050020;28;20370;-78
2022/07/04 00:44:02;;;;;;;;;;;15.00;66.50;;;;;;5049739;28;20003;-77
2022/07/04 00:46:28;;;;;;;;;;;15.00;66.60;;;;;;5049476;28;20341;-77
2022/07/04 00:48:53;;;;;;;;;;;15.00;66.50;;;;;;5031490;28;20000;-78
2022/07/04 00:51:19;;;;;;;;;;;15.00;66.60;;;;;;5049736;28;20274;-76
2022/07/04 00:53:45;;;;;;;;;;;15.00;66.60;;;;;;5032296;28;20003;-76
2022/07/04 00:56:10;;;;;;;;;;;15.00;66.60;;;;;;5050109;28;19904;-77
2022/07/04 00:58:36;;;;;;;;;;;15.00;66.50;;;;;;5048537;28;20431;-76
2022/07/04 01:01:02;;;;;;;;;;;15.00;66.60;;;;;;5064207;28;19948;-77
2022/07/04 01:03:28;;;;;;;;;;;15.00;66.60;;;;;;5031473;28;19970;-77
2022/07/04 01:05:53;;;;;;;;;;;15.00;66.50;;;;;;5049393;28;20019;-77
2022/07/04 01:08:19;;;;;;;;;;;15.00;66.50;;;;;;5047872;28;19913;-78
2022/07/04 01:10:45;;;;;;;;;;;15.00;67.00;;;;;;5065475;28;19915;-76
2022/07/04 01:13:23;;;;;;;;;;;15.00;66.50;;;;;;5048250;28;20055;-76
2022/07/04 01:15:50;;;;;;;;;;;15.00;66.50;;;;;;5049397;28;19915;-78
2022/07/04 01:18:16;;;;;;;;;;;15.10;66.60;;;;;;5049430;28;19905;-76
2022/07/04 01:20:42;;;;;;;;;;;15.10;66.60;;;;;;5049568;28;20019;-77
2022/07/04 01:23:07;;;;;;;;;;;15.10;66.60;;;;;;5049211;28;19944;-76
2022/07/04 01:25:33;;;;;;;;;;;15.10;66.60;;;;;;5048883;28;19940;-77
2022/07/04 01:27:59;;;;;;;;;;;15.10;66.60;;;;;;5064437;28;20276;-77
2022/07/04 01:30:25;;;;;;;;;;;15.00;66.50;;;;;;5049026;28;20362;-80
2022/07/04 01:32:51;;;;;;;;;;;15.00;66.50;;;;;;5047586;28;19912;-77
2022/07/04 01:35:16;;;;;;;;;;;15.00;66.50;;;;;;5047290;28;19978;-78
2022/07/04 01:37:42;;;;;;;;;;;15.00;66.60;;;;;;5048662;28;19923;-77
2022/07/04 01:40:08;;;;;;;;;;;15.00;66.60;;;;;;5047777;28;19913;-79
2022/07/04 01:42:34;;;;;;;;;;;15.00;66.50;;;;;;5048493;28;19911;-76
2022/07/04 01:44:59;;;;;;;;;;;15.00;66.60;;;;;;5063805;28;19909;-78
2022/07/04 01:47:26;;;;;;;;;;;15.00;66.60;;;;;;5065513;28;19961;-77
2022/07/04 01:49:51;;;;;;;;;;;14.90;66.60;;;;;;5055018;28;19978;-78
2022/07/04 01:52:17;;;;;;;;;;;14.90;66.60;;;;;;5053582;28;19904;-78
2022/07/04 01:54:42;;;;;;;;;;;15.00;66.70;;;;;;5055944;28;19909;-75
2022/07/04 01:57:08;;;;;;;;;;;15.00;66.60;;;;;;5053788;28;19920;-78
2022/07/04 02:02:18;;;;;;;;;;;15.00;66.70;;;;;;5055585;28;20415;-76
2022/07/04 02:04:43;;;;;;;;;;;15.00;66.70;;;;;;5070698;28;20011;-77
2022/07/04 02:07:09;;;;;;;;;;;15.00;66.70;;;;;;5055628;28;19934;-76
2022/07/04 02:09:35;;;;;;;;;;;15.00;66.70;;;;;;5070771;28;19916;-77
2022/07/04 02:14:44;;;;;;;;;;;15.00;66.60;;;;;;5055782;28;20270;-78
2022/07/04 02:17:10;;;;;;;;;;;15.00;66.60;;;;;;5055691;28;19913;-78
2022/07/04 02:19:36;;;;;;;;;;;14.90;66.60;;;;;;5070955;28;20315;-77
2022/07/04 02:22:02;;;;;;;;;;;14.90;66.70;;;;;;5054156;28;20131;-75
2022/07/04 02:24:28;;;;;;;;;;;14.90;66.70;;;;;;5070532;28;19932;-76
2022/07/04 02:26:53;;;;;;;;;;;14.90;66.70;;;;;;5053576;28;20008;-75
2022/07/04 02:29:19;;;;;;;;;;;14.90;66.70;;;;;;5053482;28;19905;-77
2022/07/04 02:31:45;;;;;;;;;;;14.90;66.70;;;;;;5070718;28;20315;-76
2022/07/04 02:34:10;;;;;;;;;;;14.90;66.70;;;;;;5055234;28;19914;-75
2022/07/04 02:36:36;;;;;;;;;;;14.90;66.70;;;;;;5055517;28;20291;-76
2022/07/04 02:39:04;;;;;;;;;;;14.90;66.70;;;;;;5055073;28;20394;-76
2022/07/04 02:41:30;;;;;;;;;;;14.90;66.60;;;;;;5055109;28;19920;-77
2022/07/04 02:43:56;;;;;;;;;;;14.90;66.70;;;;;;5054591;28;20511;-75
2022/07/04 02:46:22;;;;;;;;;;;14.90;66.70;;;;;;5054811;28;19915;-78
2022/07/04 02:48:48;;;;;;;;;;;14.80;66.60;;;;;;5054675;28;20374;-77
2022/07/04 02:51:13;;;;;;;;;;;14.80;66.60;;;;;;5055488;28;19909;-76
2022/07/04 02:53:39;;;;;;;;;;;14.80;66.60;;;;;;5055534;28;19908;-78
2022/07/04 02:56:05;;;;;;;;;;;14.70;66.50;;;;;;5054196;28;19904;-77
2022/07/04 02:58:31;;;;;;;;;;;14.60;66.50;;;;;;5053033;28;19951;-76
2022/07/04 03:00:56;;;;;;;;;;;14.60;66.60;;;;;;5066203;28;19912;-78
2022/07/04 03:03:22;;;;;;;;;;;14.50;66.60;;;;;;5050793;28;19905;-78
2022/07/04 03:05:47;;;;;;;;;;;14.50;66.70;;;;;;5050828;28;20007;-78
2022/07/04 03:08:13;;;;;;;;;;;14.50;66.80;;;;;;5050896;28;19919;-78
2022/07/04 03:10:38;;;;;;;;;;;14.40;66.80;;;;;;5051709;28;19962;-77
2022/07/04 03:13:04;;;;;;;;;;;14.40;66.70;;;;;;5050282;28;19909;-78
2022/07/04 03:15:29;;;;;;;;;;;14.50;66.80;;;;;;5050376;28;19909;-76
2022/07/04 03:17:55;;;;;;;;;;;14.40;66.80;;;;;;5066748;28;19932;-76
2022/07/04 03:20:21;;;;;;;;;;;14.50;66.80;;;;;;5051397;28;19948;-77
2022/07/04 03:22:46;;;;;;;;;;;14.50;66.80;;;;;;5049912;28;19905;-77
2022/07/04 03:25:12;;;;;;;;;;;14.50;66.80;;;;;;5050820;28;19944;-76
2022/07/04 03:27:37;;;;;;;;;;;14.50;66.90;;;;;;5032907;28;19913;-76
2022/07/04 03:30:03;;;;;;;;;;;14.50;66.80;;;;;;5049549;28;20003;-76
2022/07/04 03:32:28;;;;;;;;;;;14.60;66.90;;;;;;5066688;28;19913;-78
2022/07/04 03:34:54;;;;;;;;;;;14.60;66.80;;;;;;5051185;28;20409;-76
2022/07/04 03:37:20;;;;;;;;;;;14.60;66.80;;;;;;5050956;28;19921;-78
2022/07/04 03:39:45;;;;;;;;;;;14.60;66.80;;;;;;5032959;28;19916;-77
2022/07/04 03:42:11;;;;;;;;;;;14.60;66.80;;;;;;5066292;28;19908;-79
2022/07/04 03:44:36;;;;;;;;;;;14.50;66.80;;;;;;5066690;28;19913;-76
2022/07/04 03:47:02;;;;;;;;;;;14.50;66.70;;;;;;5032641;28;19915;-79
2022/07/04 03:49:27;;;;;;;;;;;14.50;66.80;;;;;;5050694;28;19909;-78
2022/07/04 03:51:53;;;;;;;;;;;14.50;66.80;;;;;;5065723;28;19915;-77
2022/07/04 03:54:19;;;;;;;;;;;14.50;66.90;;;;;;5050210;28;19957;-78
2022/07/04 03:56:44;;;;;;;;;;;14.50;66.90;;;;;;5065754;28;19909;-77
2022/07/04 03:59:10;;;;;;;;;;;14.50;66.90;;;;;;5049123;28;20007;-78
2022/07/04 04:01:35;;;;;;;;;;;14.50;66.90;;;;;;5049045;28;20344;-76
2022/07/04 04:06:45;;;;;;;;;;;14.50;66.90;;;;;;5049891;28;19954;-76
2022/07/04 04:09:16;;;;;;;;;;;14.40;66.90;;;;;;5065245;28;19908;-78
2022/07/04 04:11:42;;;;;;;;;;;14.40;66.90;;;;;;5065508;28;20355;-76
2022/07/04 04:14:08;;;;;;;;;;;14.50;67.00;;;;;;5050198;28;20003;-78
2022/07/04 04:16:33;;;;;;;;;;;14.40;67.00;;;;;;5050152;28;20349;-78
2022/07/04 04:18:59;;;;;;;;;;;14.50;67.00;;;;;;5065361;28;19940;-78
2022/07/04 04:21:24;;;;;;;;;;;14.50;67.00;;;;;;5065179;28;20355;-76
2022/07/04 04:23:50;;;;;;;;;;;14.50;67.00;;;;;;5048741;28;19911;-78
2022/07/04 04:26:16;;;;;;;;;;;14.50;67.00;;;;;;5064870;28;19909;-76
2022/07/04 04:28:43;;;;;;;;;;;14.50;67.00;;;;;;5051114;28;19904;-79
2022/07/04 04:31:08;;;;;;;;;;;14.50;66.90;;;;;;5049978;28;19959;-77
2022/07/04 04:33:34;;;;;;;;;;;14.50;66.90;;;;;;5048941;28;19952;-77
2022/07/04 04:36:00;;;;;;;;;;;14.60;67.00;;;;;;5049713;28;19999;-77
2022/07/04 04:38:25;;;;;;;;;;;14.60;67.00;;;;;;5049418;28;19954;-78
2022/07/04 04:40:51;;;;;;;;;;;14.60;67.00;;;;;;5048893;28;20370;-76
2022/07/04 04:43:17;;;;;;;;;;;14.50;66.90;;;;;;5049762;28;19912;-78
2022/07/04 04:45:42;;;;;;;;;;;14.50;67.40;;;;;;5064721;28;19991;-76
2022/07/04 04:48:08;;;;;;;;;;;14.50;66.90;;;;;;5064354;28;19908;-75
2022/07/04 04:50:33;;;;;;;;;;;14.50;66.90;;;;;;5047835;28;20061;-78
2022/07/04 04:53:00;;;;;;;;;;;14.50;67.00;;;;;;5049397;28;19904;-79
2022/07/04 04:55:25;;;;;;;;;;;14.50;66.90;;;;;;5031459;28;20033;-77
2022/07/04 04:57:51;;;;;;;;;;;14.50;66.90;;;;;;5048343;28;19979;-75
2022/07/04 05:00:16;;;;;;;;;;;14.50;67.00;;;;;;5064867;28;19935;-78
2022/07/04 05:02:42;;;;;;;;;;;14.50;67.00;;;;;;5049423;28;19905;-79
2022/07/04 05:05:08;;;;;;;;;;;14.50;67.00;;;;;;5049560;28;19958;-77
2022/07/04 05:07:34;;;;;;;;;;;14.60;67.00;;;;;;5049741;28;20424;-77
2022/07/04 05:10:00;;;;;;;;;;;14.60;66.90;;;;;;5049225;28;20421;-77
2022/07/04 05:12:26;;;;;;;;;;;14.60;66.80;;;;;;5049529;28;19908;-76
2022/07/04 05:14:52;;;;;;;;;;;14.60;66.80;;;;;;5049514;28;19913;-78
2022/07/04 05:17:18;;;;;;;;;;;14.60;66.90;;;;;;5048792;28;19908;-78
2022/07/04 05:19:44;;;;;;;;;;;14.60;66.90;;;;;;5047812;28;19913;-76
2022/07/04 05:22:10;;;;;;;;;;;14.60;67.00;;;;;;5064441;28;20343;-76
2022/07/04 05:24:39;;;;;;;;;;;14.70;67.00;;;;;;5047669;28;19915;-75
2022/07/04 05:27:05;;;;;;;;;;;14.80;67.10;;;;;;5048752;28;20334;-78
2022/07/04 05:29:30;;;;;;;;;;;14.80;67.10;;;;;;5030523;28;20395;-78
2022/07/04 05:31:56;;;;;;;;;;;14.80;67.00;;;;;;5048219;28;20011;-77
2022/07/04 05:34:22;;;;;;;;;;;14.90;67.10;;;;;;5030753;28;19912;-81
2022/07/04 05:36:47;;;;;;;;;;;15.00;67.00;;;;;;5064165;28;19909;-77
2022/07/04 05:39:13;;;;;;;;;;;15.00;67.00;;;;;;5064629;28;19916;-78
2022/07/04 05:41:38;;;;;;;;;;;15.00;66.90;;;;;;5047676;28;20359;-77
2022/07/04 05:44:04;;;;;;;;;;;15.10;66.90;;;;;;5048849;28;19914;-77
2022/07/04 05:46:30;;;;;;;;;;;15.20;66.90;;;;;;5048858;28;19959;-76
2022/07/04 05:48:55;;;;;;;;;;;15.30;66.90;;;;;;5048653;28;19915;-76
2022/07/04 05:51:21;;;;;;;;;;;15.40;66.90;;;;;;5048668;28;19921;-77
2022/07/04 05:53:47;;;;;;;;;;;15.50;66.90;;;;;;5063953;28;19917;-78
2022/07/04 05:56:12;;;;;;;;;;;15.70;67.00;;;;;;5049060;28;19946;-77
2022/07/04 05:58:38;;;;;;;;;;;15.80;66.80;;;;;;5048714;28;20007;-78
2022/07/04 06:01:04;;;;;;;;;;;15.90;66.70;;;;;;5048755;28;19954;-78
2022/07/04 06:03:30;;;;;;;;;;;16.00;66.60;;;;;;5064611;28;19909;-79
2022/07/04 06:05:55;;;;;;;;;;;16.10;67.20;;;;;;5064080;28;20351;-78
2022/07/04 06:08:21;;;;;;;;;;;16.30;66.70;;;;;;5046626;28;19920;-77
2022/07/04 06:10:47;;;;;;;;;;;16.60;66.50;;;;;;5049029;28;19915;-77
2022/07/04 06:13:12;;;;;;;;;;;16.70;66.30;;;;;;5049050;28;20390;-78
2022/07/04 06:15:38;;;;;;;;;;;16.80;66.20;;;;;;5047450;28;20156;-79
2022/07/04 06:18:04;;;;;;;;;;;16.90;66.10;;;;;;5048759;28;20266;-76
2022/07/04 06:20:30;;;;;;;;;;;16.80;65.90;;;;;;5030540;28;19934;-77
2022/07/04 06:22:56;;;;;;;;;;;16.60;66.00;;;;;;5047317;28;20016;-77
2022/07/04 06:25:22;;;;;;;;;;;16.40;66.20;;;;;;5047189;28;19909;-77
2022/07/04 06:27:48;;;;;;;;;;;16.30;66.50;;;;;;5047255;28;20349;-77
2022/07/04 06:30:15;;;;;;;;;;;16.30;66.70;;;;;;5047280;28;19905;-76
2022/07/04 06:32:41;;;;;;;;;;;16.50;67.30;;;;;;5047058;28;19912;-77
2022/07/04 06:37:51;;;;;;;;;;;19.20;65.40;;;;;;5051496;28;19928;-77
2022/07/04 06:40:16;;;;;;;;;;;20.00;64.00;;;;;;5051601;28;19921;-77
2022/07/04 06:42:42;;;;;;;;;;;20.20;63.60;;;;;;5052495;28;20314;-78
2022/07/04 06:45:08;;;;;;;;;;;19.80;63.30;;;;;;5067073;28;19962;-78
2022/07/04 06:47:34;;;;;;;;;;;19.20;63.80;;;;;;5051553;28;19943;-78
2022/07/04 06:49:59;;;;;;;;;;;18.60;64.50;;;;;;5051054;28;19916;-77
2022/07/04 06:52:25;;;;;;;;;;;18.20;65.30;;;;;;5066329;28;20343;-78
2022/07/04 06:54:50;;;;;;;;;;;18.20;65.80;;;;;;5033565;28;19913;-78
2022/07/04 06:57:16;;;;;;;;;;;18.20;65.80;;;;;;5050349;28;20050;-77
2022/07/04 06:59:41;;;;;;;;;;;18.00;65.60;;;;;;5049896;28;20015;-78
2022/07/04 07:02:07;;;;;;;;;;;17.70;65.80;;;;;;5050298;28;20373;-79
2022/07/04 07:04:33;;;;;;;;;;;17.50;66.00;;;;;;5051135;28;19980;-79
2022/07/04 07:06:58;;;;;;;;;;;17.40;66.30;;;;;;5067071;28;19993;-80
2022/07/04 07:09:24;;;;;;;;;;;17.20;66.30;;;;;;5066468;28;19984;-78
2022/07/04 07:11:49;;;;;;;;;;;17.10;66.50;;;;;;5051017;28;19912;-77
2022/07/04 07:14:15;;;;;;;;;;;16.90;66.50;;;;;;5049926;28;19913;-77
2022/07/04 07:16:40;;;;;;;;;;;16.80;66.60;;;;;;5049964;28;19927;-77
2022/07/04 07:19:06;;;;;;;;;;;16.70;66.60;;;;;;5050552;28;20437;-78
2022/07/04 07:21:32;;;;;;;;;;;16.70;66.70;;;;;;5049226;28;19909;-77
2022/07/04 07:23:57;;;;;;;;;;;16.60;66.70;;;;;;5050576;28;19909;-76
2022/07/04 07:26:23;;;;;;;;;;;16.50;66.70;;;;;;5065951;28;19918;-76
2022/07/04 07:28:48;;;;;;;;;;;16.40;66.80;;;;;;5050429;28;20361;-78
2022/07/04 07:31:14;;;;;;;;;;;16.40;66.90;;;;;;5049143;28;20212;-80
2022/07/04 07:33:40;;;;;;;;;;;16.30;66.60;;;;;;5050280;28;19913;-77
2022/07/04 07:36:05;;;;;;;;;;;16.10;66.50;;;;;;5032401;28;19909;-78
2022/07/04 07:38:31;;;;;;;;;;;15.90;66.70;;;;;;5050603;28;19923;-77
2022/07/04 07:40:58;;;;;;;;;;;15.90;67.00;;;;;;5049153;28;19947;-80
2022/07/04 07:43:23;;;;;;;;;;;16.00;67.00;;;;;;5065475;28;19909;-78
2022/07/04 07:45:49;;;;;;;;;;;16.20;67.00;;;;;;5064656;28;19958;-78
2022/07/04 07:48:14;;;;;;;;;;;16.40;67.00;;;;;;5048628;28;19909;-78
2022/07/04 07:50:40;;;;;;;;;;;16.60;66.80;;;;;;5031741;28;19952;-78
2022/07/04 07:53:07;;;;;;;;;;;16.80;66.70;;;;;;5048610;28;20317;-77
2022/07/04 07:55:32;;;;;;;;;;;16.90;66.60;;;;;;5047155;28;19909;-80
2022/07/04 07:57:58;;;;;;;;;;;17.00;66.50;;;;;;5047264;28;19920;-77
2022/07/04 08:00:24;;;;;;;;;;;17.20;66.50;;;;;;5046749;28;20011;-79
2022/07/04 08:05:34;;;;;;;;;;;17.30;66.60;;;;;;5047080;28;19916;-79
2022/07/04 08:08:00;;;;;;;;;;;17.70;66.80;;;;;;5046428;28;20314;-79
2022/07/04 08:10:25;;;;;;;;;;;18.00;66.70;;;;;;5029921;28;20371;-79
2022/07/04 08:12:51;;;;;;;;;;;18.80;67.40;;;;;;5046510;28;19905;-80
2022/07/04 08:15:17;;;;;;;;;;;20.50;67.80;;;;;;5030050;28;19917;-78
2022/07/04 08:17:44;;;;;;;;;;;22.30;66.50;;;;;;5030157;28;20290;-78
2022/07/04 08:20:10;;;;;;;;;;;23.10;64.70;;;;;;5029896;28;19956;-79
2022/07/04 08:22:36;;;;;;;;;;;22.90;63.90;;;;;;5046551;28;19908;-79
2022/07/04 08:25:01;;;;;;;;;;;22.20;63.90;;;;;;5029954;28;20314;-77
2022/07/04 08:27:27;;;;;;;;;;;21.60;64.60;;;;;;5045010;28;20368;-79
2022/07/04 08:29:53;;;;;;;;;;;21.40;65.30;;;;;;5063560;28;20011;-78
2022/07/04 08:32:18;;;;;;;;;;;21.30;65.40;;;;;;5048579;28;19912;-79
2022/07/04 08:34:44;;;;;;;;;;;21.00;65.30;;;;;;5048984;28;19912;-79
2022/07/04 08:37:10;;;;;;;;;;;20.50;65.60;;;;;;5063305;28;19913;-78
2022/07/04 08:39:35;;;;;;;;;;;20.00;65.80;;;;;;5047195;28;19909;-77
2022/07/04 08:42:09;;;;;;;;;;;19.70;66.20;;;;;;5030597;28;19913;-77
2022/07/04 08:44:38;;;;;;;;;;;19.50;66.50;;;;;;5048568;28;19912;-77
2022/07/04 08:47:04;;;;;;;;;;;19.40;66.60;;;;;;5048580;28;19905;-76
2022/07/04 08:49:31;;;;;;;;;;;19.30;66.50;;;;;;5048374;28;20353;-77
2022/07/04 08:52:09;;;;;;;;;;;19.20;66.70;;;;;;5063630;28;19916;-80
2022/07/04 09:00:04;;;;;;;;;;;19.10;66.60;;;;;;5049507;28;19911;-76
2022/07/04 09:02:30;;;;;;;;;;;19.00;66.80;;;;;;5048832;28;19905;-77
2022/07/04 09:04:55;;;;;;;;;;;19.00;66.90;;;;;;5065213;28;19916;-77
2022/07/04 09:07:22;;;;;;;;;;;19.30;67.30;;;;;;5049484;28;20341;-79
2022/07/04 09:09:47;;;;;;;;;;;19.80;67.40;;;;;;5048717;28;19904;-79
2022/07/04 09:12:13;;;;;;;;;;;20.10;66.90;;;;;;5050684;28;19995;-80
2022/07/04 09:14:39;;;;;;;;;;;20.20;66.80;;;;;;5048598;28;19909;-79
2022/07/04 09:17:05;;;;;;;;;;;20.30;66.70;;;;;;5048499;28;20378;-78
2022/07/04 09:19:31;;;;;;;;;;;20.40;66.60;;;;;;5031555;28;19928;-78
2022/07/04 09:22:01;;;;;;;;;;;20.40;66.80;;;;;;5065529;28;20516;-78
2022/07/04 09:24:45;;;;;;;;;;;20.40;66.60;;;;;;5048999;28;19909;-77
2022/07/04 09:27:10;;;;;;;;;;;20.30;66.50;;;;;;5049422;28;19959;-80
2022/07/04 09:29:54;;;;;;;;;;;20.20;66.50;;;;;;5047022;28;19913;-74
2022/07/04 09:32:38;;;;;;;;;;;20.10;66.80;;;;;;5047831;28;19911;-80
2022/07/04 09:35:04;;;;;;;;;;;20.10;66.90;;;;;;5048865;28;19916;-78
2022/07/04 09:37:34;;;;;;;;;;;20.20;67.10;;;;;;5048347;28;20386;-77
2022/07/04 09:39:59;;;;;;;;;;;20.80;68.00;;;;;;5048870;28;19913;-78
2022/07/04 09:42:25;;;;;;;;;;;21.40;67.10;;;;;;5047671;28;20278;-78
2022/07/04 09:44:50;;;;;;;;;;;21.50;66.20;;;;;;5047778;28;20379;-77
2022/07/04 09:47:27;;;;;;;;;;;21.50;66.10;;;;;;5049257;28;19916;-77
2022/07/04 09:49:59;;;;;;;;;;;21.30;66.20;;;;;;5049266;28;19912;-77
2022/07/04 09:52:27;;;;;;;;;;;21.20;66.40;;;;;;5049417;28;20270;-78
2022/07/04 09:54:57;;;;;;;;;;;21.20;66.60;;;;;;5047435;28;20391;-79
2022/07/04 09:57:22;;;;;;;;;;;21.20;66.60;;;;;;5048849;28;19976;-78
2022/07/04 09:59:48;;;;;;;;;;;21.10;66.50;;;;;;5047368;28;19990;-80
2022/07/04 10:02:14;;;;;;;;;;;21.10;66.80;;;;;;5046607;28;20011;-79
2022/07/04 10:04:58;;;;;;;;;;;21.30;66.90;;;;;;5031048;28;19935;-77
2022/07/04 10:07:49;;;;;;;;;;;21.60;66.90;;;;;;5048934;28;19919;-78
2022/07/04 10:10:27;;;;;;;;;;;21.80;66.80;;;;;;5048431;28;19999;-78
2022/07/04 10:12:54;;;;;;;;;;;22.00;66.70;;;;;;5051082;28;19911;-79
2022/07/04 10:15:20;;;;;;;;;;;22.30;66.70;;;;;;5052485;28;19955;-77
2022/07/04 10:17:46;;;;;;;;;;;22.40;66.30;;;;;;5051663;28;19907;-79
2022/07/04 10:20:12;;;;;;;;;;;22.30;66.20;;;;;;5034418;28;19913;-75
2022/07/04 10:22:38;;;;;;;;;;;22.10;66.20;;;;;;5052262;28;19908;-76
2022/07/04 10:25:04;;;;;;;;;;;22.00;66.40;;;;;;5050277;28;19931;-77
2022/07/04 10:27:30;;;;;;;;;;;21.90;66.40;;;;;;5052333;28;19954;-77
2022/07/04 10:29:56;;;;;;;;;;;21.80;66.60;;;;;;5052696;28;19905;-80
2022/07/04 10:32:22;;;;;;;;;;;22.00;67.00;;;;;;5052875;28;19911;-81
2022/07/04 10:34:47;;;;;;;;;;;22.70;67.50;;;;;;5051959;28;19921;-80
2022/07/04 10:37:13;;;;;;;;;;;23.10;66.90;;;;;;5052617;28;19917;-83
2022/07/04 10:39:40;;;;;;;;;;;23.20;66.40;;;;;;5034692;28;19959;-77
2022/07/04 10:42:06;;;;;;;;;;;23.10;66.10;;;;;;5050827;28;19905;-80
2022/07/04 10:44:37;;;;;;;;;;;23.00;66.30;;;;;;5052821;28;19955;-82
2022/07/04 10:47:03;;;;;;;;;;;22.90;66.40;;;;;;5054648;28;19963;-82
2022/07/04 10:49:29;;;;;;;;;;;22.80;66.40;;;;;;5053125;28;19951;-80
2022/07/04 10:51:56;;;;;;;;;;;22.70;66.30;;;;;;5051621;28;19909;-77
2022/07/04 10:54:21;;;;;;;;;;;22.50;66.20;;;;;;5052078;28;19908;-76
2022/07/04 10:56:49;;;;;;;;;;;22.50;66.30;;;;;;5052754;28;20309;-80
2022/07/04 10:59:19;;;;;;;;;;;22.40;66.30;;;;;;5051452;28;20263;-79
2022/07/04 11:01:46;;;;;;;;;;;22.30;66.10;;;;;;5050590;28;19905;-82
2022/07/04 11:04:11;;;;;;;;;;;22.20;66.10;;;;;;5034774;28;20350;-82
2022/07/04 11:06:40;;;;;;;;;;;22.00;66.20;;;;;;5034508;28;20046;-81
2022/07/04 11:09:22;;;;;;;;;;;21.90;66.30;;;;;;5052194;28;19927;-82
2022/07/04 11:11:58;;;;;;;;;;;21.70;66.20;;;;;;5051153;28;20327;-81
2022/07/04 11:14:36;;;;;;;;;;;21.60;66.30;;;;;;5051062;28;19909;-76
2022/07/04 11:17:02;;;;;;;;;;;21.40;66.60;;;;;;5052756;28;19942;-81
2022/07/04 11:19:28;;;;;;;;;;;21.60;66.80;;;;;;5050888;28;19917;-81
2022/07/04 11:21:57;;;;;;;;;;;21.70;66.70;;;;;;5050260;28;19909;-81
2022/07/04 11:24:23;;;;;;;;;;;21.80;66.60;;;;;;5051830;28;19906;-78
2022/07/04 11:26:49;;;;;;;;;;;21.90;66.90;;;;;;5033621;28;19991;-80
2022/07/04 11:29:15;;;;;;;;;;;22.10;66.60;;;;;;5050914;28;19947;-79
2022/07/04 11:31:45;;;;;;;;;;;22.20;66.60;;;;;;5050280;28;20361;-82
2022/07/04 11:34:13;;;;;;;;;;;22.20;66.50;;;;;;5051184;28;19909;-75
2022/07/04 11:36:40;;;;;;;;;;;22.20;66.30;;;;;;5049375;28;19912;-78
2022/07/04 11:39:07;;;;;;;;;;;22.10;66.30;;;;;;5033297;28;19916;-78
2022/07/04 11:47:18;;;;;;;;;;;22.00;66.40;;;;;;5051937;28;19985;-80
2022/07/04 11:49:43;;;;;;;;;;;21.90;66.30;;;;;;5049881;28;19905;-79
2022/07/04 11:52:09;;;;;;;;;;;21.80;66.50;;;;;;5050882;28;19991;-76
2022/07/04 11:54:35;;;;;;;;;;;21.90;66.90;;;;;;5050328;28;19923;-75
2022/07/04 11:57:14;;;;;;;;;;;22.10;66.90;;;;;;5049911;28;19916;-79
2022/07/04 11:59:43;;;;;;;;;;;22.40;66.80;;;;;;5048971;28;19912;-79
2022/07/04 12:02:15;;;;;;;;;;;22.50;66.40;;;;;;5048797;28;19904;-79
2022/07/04 12:04:41;;;;;;;;;;;22.50;66.40;;;;;;5050372;28;20250;-79
2022/07/04 12:07:11;;;;;;;;;;;22.50;66.40;;;;;;5049297;28;19912;-77
2022/07/04 12:09:37;;;;;;;;;;;22.50;66.20;;;;;;5048824;28;19912;-79
2022/07/04 12:12:02;;;;;;;;;;;22.30;66.10;;;;;;5049215;28;20267;-78
2022/07/04 12:14:28;;;;;;;;;;;22.20;66.10;;;;;;5033051;28;19916;-79
2022/07/04 12:17:12;;;;;;;;;;;22.10;66.30;;;;;;5052111;28;19905;-81
2022/07/04 12:19:48;;;;;;;;;;;22.00;66.30;;;;;;5051597;28;19911;-80
2022/07/04 12:22:23;;;;;;;;;;;22.00;66.50;;;;;;5049900;28;20003;-81
2022/07/04 12:24:49;;;;;;;;;;;22.00;66.50;;;;;;5052216;28;20390;-80
2022/07/04 12:27:18;;;;;;;;;;;22.10;66.60;;;;;;5050148;28;19916;-79
2022/07/04 12:29:48;;;;;;;;;;;22.20;66.60;;;;;;5049561;28;19927;-79
2022/07/04 12:32:14;;;;;;;;;;;22.50;66.70;;;;;;5049396;28;20049;-80
2022/07/04 12:34:39;;;;;;;;;;;22.60;66.50;;;;;;5049426;28;20007;-79
2022/07/04 12:37:07;;;;;;;;;;;22.70;66.50;;;;;;5049255;28;19948;-81
2022/07/04 12:39:37;;;;;;;;;;;22.70;66.30;;;;;;5049639;28;19913;-81
2022/07/04 12:42:04;;;;;;;;;;;22.60;66.10;;;;;;5050295;28;19996;-80
2022/07/04 12:44:29;;;;;;;;;;;22.50;66.30;;;;;;5048949;28;19909;-80
2022/07/04 12:46:58;;;;;;;;;;;22.70;66.70;;;;;;5049726;28;19905;-80
2022/07/04 12:49:24;;;;;;;;;;;23.00;66.60;;;;;;5049905;28;19904;-81
2022/07/04 12:51:49;;;;;;;;;;;23.30;66.70;;;;;;5048434;28;20043;-79
2022/07/04 12:54:15;;;;;;;;;;;23.60;66.60;;;;;;5050235;28;20200;-79
2022/07/04 12:56:42;;;;;;;;;;;23.80;66.30;;;;;;5049533;28;19911;-81
2022/07/04 12:59:08;;;;;;;;;;;23.90;66.20;;;;;;5047856;28;19912;-81
2022/07/04 13:01:34;;;;;;;;;;;24.00;66.20;;;;;;5049222;28;20252;-81
2022/07/04 13:04:00;;;;;;;;;;;24.00;65.90;;;;;;5048426;28;19911;-81
2022/07/04 13:06:26;;;;;;;;;;;23.90;65.80;;;;;;5048943;28;19913;-80
2022/07/04 13:08:52;;;;;;;;;;;23.80;65.90;;;;;;5050280;28;20533;-79
2022/07/04 13:14:02;;;;;;;;;;;23.70;66.00;;;;;;5049844;28;20298;-81
2022/07/04 13:16:28;;;;;;;;;;;23.60;66.60;;;;;;5049233;28;19913;-81
2022/07/04 13:18:53;;;;;;;;;;;23.50;66.20;;;;;;5049500;28;19905;-80
2022/07/04 13:21:19;;;;;;;;;;;23.40;66.00;;;;;;5048628;28;19913;-79
2022/07/04 13:23:45;;;;;;;;;;;23.20;66.10;;;;;;5048298;28;20353;-77
2022/07/04 13:26:10;;;;;;;;;;;23.10;66.20;;;;;;5048090;28;19995;-79
2022/07/04 13:28:36;;;;;;;;;;;23.10;66.50;;;;;;5048608;28;20739;-80
2022/07/04 13:31:02;;;;;;;;;;;23.40;66.70;;;;;;5047983;28;19995;-80
2022/07/04 13:33:27;;;;;;;;;;;23.70;66.70;;;;;;5049392;28;19908;-77
2022/07/04 13:35:53;;;;;;;;;;;23.90;66.30;;;;;;5047969;28;19905;-78
2022/07/04 13:38:19;;;;;;;;;;;23.90;66.10;;;;;;5049494;28;19916;-81
2022/07/04 13:40:45;;;;;;;;;;;23.90;66.10;;;;;;5048055;28;19960;-80
2022/07/04 13:43:11;;;;;;;;;;;23.80;65.90;;;;;;5048041;28;19996;-80
2022/07/04 13:45:39;;;;;;;;;;;23.60;65.80;;;;;;5047690;28;19991;-79
2022/07/04 13:48:05;;;;;;;;;;;23.40;65.80;;;;;;5048894;28;19911;-81
2022/07/04 13:50:30;;;;;;;;;;;23.30;66.70;;;;;;5048829;28;20374;-81
2022/07/04 13:52:56;;;;;;;;;;;23.30;66.40;;;;;;5048887;28;20256;-80
2022/07/04 13:55:21;;;;;;;;;;;23.30;66.50;;;;;;5048098;28;20031;-79
2022/07/04 13:57:47;;;;;;;;;;;23.40;66.60;;;;;;5049088;28;20383;-81
2022/07/04 14:00:13;;;;;;;;;;;23.50;66.70;;;;;;5049068;28;19915;-78
2022/07/04 14:02:38;;;;;;;;;;;23.70;66.70;;;;;;5049405;28;19924;-77
2022/07/04 14:05:04;;;;;;;;;;;23.90;66.80;;;;;;5048902;28;19917;-78
2022/07/04 14:07:30;;;;;;;;;;;24.10;66.70;;;;;;5048251;28;19999;-77
2022/07/04 14:09:56;;;;;;;;;;;24.10;66.10;;;;;;5047797;28;19909;-75
2022/07/04 14:12:21;;;;;;;;;;;23.70;65.80;;;;;;5046946;28;19905;-77
2022/07/04 14:14:47;;;;;;;;;;;23.50;66.30;;;;;;5030576;28;19939;-76
2022/07/04 14:17:13;;;;;;;;;;;23.50;66.70;;;;;;5046659;28;20347;-75
2022/07/04 14:19:38;;;;;;;;;;;23.60;66.60;;;;;;5046084;28;19915;-78
2022/07/04 14:22:04;;;;;;;;;;;23.70;66.70;;;;;;5046458;28;20003;-76
2022/07/04 14:24:29;;;;;;;;;;;23.80;66.60;;;;;;5046614;28;19935;-74
2022/07/04 14:26:55;;;;;;;;;;;23.90;66.60;;;;;;5047928;28;19909;-76
2022/07/04 14:29:21;;;;;;;;;;;23.90;66.50;;;;;;5046269;28;19992;-74
2022/07/04 14:31:47;;;;;;;;;;;23.90;66.40;;;;;;5047314;28;20328;-79
2022/07/04 14:34:12;;;;;;;;;;;23.80;66.40;;;;;;5048124;28;19920;-78
2022/07/04 14:36:39;;;;;;;;;;;23.90;66.60;;;;;;5047930;28;19974;-76
2022/07/04 14:39:05;;;;;;;;;;;24.00;66.70;;;;;;5046039;28;20357;-76